createdAt,value
2022-10-19T00:00:24.382Z,97021.06
2022-10-19T00:02:51.555Z,97011.91
2022-10-19T00:05:19.423Z,97022.50
2022-10-19T00:07:48.362Z,97015.88
2022-10-19T00:10:15.297Z,97012.50
2022-10-19T00:12:42.126Z,97016.91
2022-10-19T00:15:09.762Z,97017.91
2022-10-19T00:17:36.715Z,97016.31
2022-10-19T00:20:03.679Z,97015.59
2022-10-19T00:22:30.881Z,97017.31
2022-10-19T00:24:59.793Z,97018.78
2022-10-19T00:27:29.908Z,97015.09
2022-10-19T00:29:58.414Z,97009.63
2022-10-19T00:32:28.138Z,97006.34
2022-10-19T00:34:55.169Z,97011.81
2022-10-19T00:37:22.430Z,97009.16
2022-10-19T00:42:23.227Z,97007.22
2022-10-19T00:44:50.262Z,97014.19
2022-10-19T00:47:19.387Z,97015.59
2022-10-19T00:49:48.412Z,97022.31
2022-10-19T00:52:15.409Z,97007.28
2022-10-19T00:54:42.491Z,97011.06
2022-10-19T00:57:09.628Z,97009.38
2022-10-19T00:59:37.388Z,97007.34
2022-10-19T01:02:04.752Z,97009.44
2022-10-19T01:04:32.004Z,97008.84
2022-10-19T01:06:58.978Z,97002.59
2022-10-19T01:09:26.064Z,97015.75
2022-10-19T01:11:53.722Z,97012.78
2022-10-19T01:14:21.638Z,97012.66
2022-10-19T01:16:48.498Z,97010.75
2022-10-19T01:19:16.347Z,97005.34
2022-10-19T01:21:43.439Z,97000.50
2022-10-19T01:24:10.607Z,96997.16
2022-10-19T01:26:37.997Z,96997.22
2022-10-19T01:29:05.059Z,96997.81
2022-10-19T01:31:32.078Z,96993.56
2022-10-19T01:34:00.266Z,96986.63
2022-10-19T01:36:27.337Z,96985.94
2022-10-19T01:38:57.520Z,96980.16
2022-10-19T01:41:24.500Z,96972.72
2022-10-19T01:43:51.498Z,96979.50
2022-10-19T01:46:18.370Z,96979.38
2022-10-19T01:48:49.907Z,96978.41
2022-10-19T01:51:17.365Z,96976.81
2022-10-19T01:53:44.129Z,96977.88
2022-10-19T01:56:11.765Z,96977.59
2022-10-19T01:58:38.917Z,96980.34
2022-10-19T02:01:05.706Z,96974.56
2022-10-19T02:03:33.289Z,96968.66
2022-10-19T02:06:02.087Z,96971.88
2022-10-19T02:08:32.569Z,96978.75
2022-10-19T02:10:59.612Z,96978.69
2022-10-19T02:13:28.335Z,96977.34
2022-10-19T02:15:54.997Z,96973.25
2022-10-19T02:18:21.735Z,96973.44
2022-10-19T02:20:52.250Z,96971.13
2022-10-19T02:23:19.242Z,96965.81
2022-10-19T02:25:46.650Z,96961.97
2022-10-19T02:28:13.384Z,96961.19
2022-10-19T02:30:40.035Z,96958.41
2022-10-19T02:33:12.324Z,96961.41
2022-10-19T02:35:39.354Z,96954.03
2022-10-19T02:38:06.960Z,96946.75
2022-10-19T02:40:38.019Z,96943.50
2022-10-19T02:43:04.979Z,96945.25
2022-10-19T02:45:32.040Z,96934.84
2022-10-19T02:47:58.992Z,96937.47
2022-10-19T02:50:25.931Z,96934.53
2022-10-19T02:52:53.076Z,96928.25
2022-10-19T02:55:20.905Z,96934.06
2022-10-19T02:57:50.966Z,96933.00
2022-10-19T03:00:18.002Z,96926.44
2022-10-19T03:02:44.944Z,96933.31
2022-10-19T03:05:15.399Z,96939.41
2022-10-19T03:07:45.919Z,96941.63
2022-10-19T03:10:12.760Z,96938.47
2022-10-19T03:12:41.877Z,96938.03
2022-10-19T03:15:09.008Z,96939.13
2022-10-19T03:17:37.815Z,96928.41
2022-10-19T03:20:04.729Z,96927.78
2022-10-19T03:22:36.416Z,96926.84
2022-10-19T03:25:03.763Z,96919.69
2022-10-19T03:27:30.886Z,96915.38
2022-10-19T03:29:58.701Z,96924.22
2022-10-19T03:32:25.583Z,96919.19
2022-10-19T03:34:53.192Z,96913.81
2022-10-19T03:37:19.993Z,96924.94
2022-10-19T03:39:53.698Z,96919.84
2022-10-19T03:42:23.751Z,96920.31
2022-10-19T03:44:54.223Z,96919.22
2022-10-19T03:47:21.215Z,96927.09
2022-10-19T03:49:48.750Z,96919.56
2022-10-19T03:52:16.590Z,96917.44
2022-10-19T03:54:45.168Z,96922.63
2022-10-19T03:57:13.744Z,96917.25
2022-10-19T03:59:42.567Z,96926.84
2022-10-19T04:02:12.799Z,96934.81
2022-10-19T04:04:39.872Z,96929.00
2022-10-19T04:07:07.433Z,96924.34
2022-10-19T04:09:34.538Z,96933.94
2022-10-19T04:12:03.140Z,96937.63
2022-10-19T04:14:57.365Z,96920.06
2022-10-19T04:17:25.797Z,96924.84
2022-10-19T04:19:56.070Z,96922.97
2022-10-19T04:22:22.947Z,96923.59
2022-10-19T04:24:52.504Z,96918.59
2022-10-19T04:27:20.322Z,96922.53
2022-10-19T04:29:47.877Z,96919.06
2022-10-19T04:32:18.253Z,96920.22
2022-10-19T04:34:45.844Z,96913.63
2022-10-19T04:37:24.250Z,96917.44
2022-10-19T04:40:15.390Z,96907.69
2022-10-19T04:42:51.757Z,96913.50
2022-10-19T04:45:18.521Z,96914.00
2022-10-19T04:47:48.857Z,96911.91
2022-10-19T04:50:22.659Z,96912.25
2022-10-19T04:52:51.972Z,96916.97
2022-10-19T04:55:19.453Z,96904.88
2022-10-19T04:57:46.740Z,96914.03
2022-10-19T05:00:14.106Z,96906.91
2022-10-19T05:02:49.543Z,96905.31
2022-10-19T05:05:17.372Z,96911.34
2022-10-19T05:07:46.216Z,96903.72
2022-10-19T05:10:13.096Z,96903.78
2022-10-19T05:12:41.788Z,96895.38
2022-10-19T05:15:11.087Z,96889.22
2022-10-19T05:17:38.256Z,96899.84
2022-10-19T05:20:06.856Z,96890.25
2022-10-19T05:22:33.906Z,96892.72
2022-10-19T05:25:01.305Z,96901.41
2022-10-19T05:27:28.205Z,96905.53
2022-10-19T05:32:50.802Z,96895.69
2022-10-19T05:38:03.536Z,96896.25
2022-10-19T05:40:32.811Z,96897.13
2022-10-19T05:42:59.877Z,96889.97
2022-10-19T05:45:27.484Z,96894.63
2022-10-19T05:48:01.629Z,96902.56
2022-10-19T05:53:41.699Z,96892.88
2022-10-19T05:56:12.431Z,96890.56
2022-10-19T05:58:43.062Z,96894.63
2022-10-19T06:01:10.990Z,96891.03
2022-10-19T06:03:38.548Z,96895.56
2022-10-19T06:06:14.810Z,96902.28
2022-10-19T06:08:42.973Z,96900.66
2022-10-19T06:14:05.467Z,96896.81
2022-10-19T06:16:38.127Z,96889.59
2022-10-19T06:19:09.855Z,96898.47
2022-10-19T06:24:26.741Z,96889.00
2022-10-19T06:26:59.142Z,96900.44
2022-10-19T06:29:48.895Z,96897.44
2022-10-19T06:32:18.673Z,96903.41
2022-10-19T06:34:45.638Z,96900.50
2022-10-19T06:37:19.271Z,96896.03
2022-10-19T06:42:47.675Z,96886.63
2022-10-19T07:00:39.398Z,96910.97
2022-10-19T07:03:18.338Z,96909.16
2022-10-19T07:06:07.122Z,96905.03
2022-10-19T07:08:50.892Z,96910.81
2022-10-19T07:14:57.168Z,96909.16
2022-10-19T07:20:29.727Z,96895.91
2022-10-19T07:23:25.868Z,96900.56
2022-10-19T07:25:52.946Z,96892.50
2022-10-19T07:28:22.963Z,96884.78
2022-10-19T07:30:50.736Z,96888.50
2022-10-19T07:33:20.462Z,96892.94
2022-10-19T07:38:32.074Z,96899.59
2022-10-19T07:43:48.547Z,96900.16
2022-10-19T07:56:23.093Z,96896.63
2022-10-19T08:07:26.143Z,96906.09
2022-10-19T08:10:21.912Z,96914.03
2022-10-19T08:12:54.695Z,96910.81
2022-10-19T08:18:18.889Z,96889.97
2022-10-19T08:20:59.714Z,96895.94
2022-10-19T08:27:03.856Z,96884.72
2022-10-19T08:29:46.189Z,96882.88
2022-10-19T08:32:15.950Z,96871.47
2022-10-19T08:35:10.665Z,96865.38
2022-10-19T08:40:35.864Z,96875.22
2022-10-19T08:43:22.045Z,96875.00
2022-10-19T08:45:57.345Z,96876.78
2022-10-19T08:48:32.249Z,96874.63
2022-10-19T08:51:10.470Z,96873.22
2022-10-19T08:53:43.292Z,96868.22
2022-10-19T08:56:45.796Z,96861.59
2022-10-19T08:59:11.522Z,96859.78
2022-10-19T09:02:05.084Z,96855.19
2022-10-19T09:05:02.843Z,96860.91
2022-10-19T09:08:04.760Z,96855.69
2022-10-19T09:10:32.137Z,96854.75
2022-10-19T09:13:01.038Z,96855.88
2022-10-19T09:15:30.818Z,96848.81
2022-10-19T09:18:10.080Z,96846.16
2022-10-19T09:20:38.817Z,96856.41
2022-10-19T09:23:20.249Z,96854.78
2022-10-19T09:28:51.626Z,96855.88
2022-10-19T09:31:30.397Z,96850.78
2022-10-19T09:34:07.193Z,96850.41
2022-10-19T09:42:23.631Z,96846.38
2022-10-19T09:44:59.737Z,96837.84
2022-10-19T09:47:32.765Z,96835.81
2022-10-19T09:52:55.870Z,96829.94
2022-10-19T09:58:27.997Z,96825.25
2022-10-19T10:04:00.581Z,96821.97
2022-10-19T10:06:53.884Z,96824.03
2022-10-19T10:15:06.327Z,96832.91
2022-10-19T10:17:46.926Z,96846.50
2022-10-19T10:20:25.983Z,96838.78
2022-10-19T10:23:02.987Z,96833.72
2022-10-19T10:25:47.321Z,96825.16
2022-10-19T10:28:32.868Z,96814.28
2022-10-19T10:39:40.773Z,96819.25
2022-10-19T10:42:13.616Z,96813.00
2022-10-19T10:44:57.995Z,96813.19
2022-10-19T10:47:31.300Z,96807.63
2022-10-19T10:50:04.894Z,96798.78
2022-10-19T10:52:33.131Z,96802.00
2022-10-19T10:55:18.676Z,96792.63
2022-10-19T11:13:31.872Z,96771.88
2022-10-19T11:16:11.218Z,96769.19
2022-10-19T11:18:42.372Z,96768.75
2022-10-19T11:23:58.760Z,96757.56
2022-10-19T11:29:34.550Z,96755.94
2022-10-19T11:32:14.196Z,96756.75
2022-10-19T11:38:06.658Z,96724.25
2022-10-19T11:55:11.036Z,96703.81
2022-10-19T12:01:07.900Z,96689.97
2022-10-19T12:03:35.636Z,96682.31
2022-10-19T12:06:14.929Z,96685.88
2022-10-19T12:09:19.058Z,96684.50
2022-10-19T12:11:51.413Z,96693.34
2022-10-19T12:14:39.071Z,96686.13
2022-10-19T12:17:10.412Z,96685.19
2022-10-19T12:19:40.380Z,96667.63
2022-10-19T12:22:09.771Z,96667.09
2022-10-19T12:24:37.034Z,96662.06
2022-10-19T12:27:14.135Z,96651.66
2022-10-19T12:29:48.469Z,96646.84
2022-10-19T12:32:18.055Z,96646.53
2022-10-19T12:34:45.179Z,96655.41
2022-10-19T12:37:21.519Z,96660.25
2022-10-19T12:39:48.763Z,96655.78
2022-10-19T12:42:24.325Z,96657.78
2022-10-19T12:44:58.661Z,96653.03
2022-10-19T12:47:29.856Z,96648.66
2022-10-19T12:50:00.114Z,96649.56
2022-10-19T12:52:30.362Z,96644.69
2022-10-19T12:55:00.190Z,96634.31
2022-10-19T12:57:27.790Z,96639.25
2022-10-19T12:59:59.834Z,96645.81
2022-10-19T13:05:26.512Z,96637.66
2022-10-19T13:08:12.331Z,96645.69
2022-10-19T13:10:45.478Z,96649.50
2022-10-19T13:13:12.812Z,96644.34
2022-10-19T13:18:28.715Z,96621.25
2022-10-19T13:20:55.790Z,96627.19
2022-10-19T13:23:26.471Z,96616.16
2022-10-19T13:25:57.344Z,96612.00
2022-10-19T13:28:26.216Z,96620.59
2022-10-19T13:30:58.375Z,96609.44
2022-10-19T13:33:37.103Z,96602.94
2022-10-19T13:36:06.397Z,96595.81
2022-10-19T13:38:47.928Z,96603.63
2022-10-19T13:41:17.743Z,96607.84
2022-10-19T13:43:50.636Z,96606.63
2022-10-19T13:46:22.752Z,96600.84
2022-10-19T13:57:28.504Z,96601.88
2022-10-19T14:00:05.895Z,96607.66
2022-10-19T14:02:38.649Z,96598.53
2022-10-19T14:05:10.577Z,96601.53
2022-10-19T14:10:33.117Z,96598.44
2022-10-19T14:13:21.175Z,96595.19
2022-10-19T14:18:53.104Z,96589.50
2022-10-19T14:27:05.682Z,96577.63
2022-10-19T14:33:00.988Z,96561.94
2022-10-19T14:35:53.505Z,96556.66
2022-10-19T14:38:23.390Z,96548.50
2022-10-19T14:41:00.253Z,96551.13
2022-10-19T14:46:33.823Z,96557.16
2022-10-19T14:49:09.407Z,96560.81
2022-10-19T15:02:42.416Z,96559.56
2022-10-19T15:07:50.828Z,96554.41
2022-10-19T15:10:26.319Z,96546.91
2022-10-19T15:13:01.722Z,96546.28
2022-10-19T15:15:37.076Z,96546.81
2022-10-19T15:18:04.349Z,96561.28
2022-10-19T15:20:44.162Z,96556.25
2022-10-19T15:23:26.964Z,96552.56
2022-10-19T15:26:09.671Z,96548.78
2022-10-19T15:28:43.433Z,96541.03
2022-10-19T15:31:10.518Z,96535.66
2022-10-19T15:33:39.378Z,96537.56
2022-10-19T15:36:09.247Z,96538.81
2022-10-19T15:38:38.518Z,96530.38
2022-10-19T15:41:08.091Z,96523.81
2022-10-19T15:43:49.871Z,96526.56
2022-10-19T15:46:19.478Z,96516.41
2022-10-19T15:48:58.435Z,96523.41
2022-10-19T15:51:33.671Z,96524.88
2022-10-19T15:54:18.514Z,96527.16
2022-10-19T15:56:49.541Z,96526.16
2022-10-19T15:59:16.349Z,96533.44
2022-10-19T16:01:44.164Z,96533.00
2022-10-19T16:04:14.567Z,96531.66
2022-10-19T16:09:31.115Z,96524.97
2022-10-19T16:12:02.615Z,96531.81
2022-10-19T16:14:35.731Z,96535.53
2022-10-19T16:17:06.321Z,96535.44
2022-10-19T16:19:33.771Z,96530.06
2022-10-19T16:22:08.996Z,96533.00
2022-10-19T16:24:44.687Z,96527.19
2022-10-19T16:27:19.213Z,96521.38
2022-10-19T16:29:46.971Z,96525.16
2022-10-19T16:32:14.673Z,96525.53
2022-10-19T16:34:42.834Z,96521.63
2022-10-19T16:39:57.372Z,96515.44
2022-10-19T16:42:28.173Z,96516.09
2022-10-19T16:44:58.996Z,96521.84
2022-10-19T16:47:26.643Z,96522.69
2022-10-19T16:50:02.592Z,96533.44
2022-10-19T16:52:38.311Z,96539.78
2022-10-19T16:55:19.039Z,96544.97
2022-10-19T17:00:52.646Z,96558.53
2022-10-19T17:03:23.487Z,96553.72
2022-10-19T17:05:50.601Z,96555.25
2022-10-19T17:08:23.417Z,96552.88
2022-10-19T17:11:02.594Z,96556.28
2022-10-19T17:13:34.938Z,96562.53
2022-10-19T17:16:19.200Z,96548.06
2022-10-19T17:19:06.551Z,96554.53
2022-10-19T17:24:43.803Z,96551.22
2022-10-19T17:27:41.908Z,96548.47
2022-10-19T17:30:18.807Z,96558.34
2022-10-19T17:32:55.152Z,96551.69
2022-10-19T17:35:31.089Z,96552.25
2022-10-19T17:38:04.540Z,96551.75
2022-10-19T17:40:39.307Z,96550.88
2022-10-19T17:45:56.616Z,96565.06
2022-10-19T17:51:16.877Z,96578.78
2022-10-19T17:53:47.279Z,96583.47
2022-10-19T17:56:32.208Z,96584.22
2022-10-19T17:59:01.932Z,96571.22
2022-10-19T18:01:29.939Z,96569.63
2022-10-19T18:03:59.261Z,96570.44
2022-10-19T18:06:30.103Z,96566.84
2022-10-19T18:08:58.116Z,96559.34
2022-10-19T18:11:26.666Z,96557.94
2022-10-19T18:13:53.892Z,96562.03
2022-10-19T18:16:21.929Z,96559.59
2022-10-19T18:18:49.441Z,96564.59
2022-10-19T18:21:18.792Z,96561.06
2022-10-19T18:23:54.340Z,96567.38
2022-10-19T18:26:24.390Z,96575.72
2022-10-19T18:29:07.821Z,96561.72
2022-10-19T18:31:47.425Z,96557.50
2022-10-19T18:34:24.305Z,96556.38
2022-10-19T18:36:54.359Z,96554.09
2022-10-19T18:39:21.416Z,96558.31
2022-10-19T18:41:56.389Z,96561.66
2022-10-19T18:44:27.096Z,96567.06
2022-10-19T18:56:23.788Z,96557.84
2022-10-19T18:59:21.560Z,96556.56
2022-10-19T19:02:04.742Z,96549.47
2022-10-19T19:04:33.643Z,96551.16
2022-10-19T19:07:08.994Z,96551.66
2022-10-19T19:09:35.968Z,96547.91
2022-10-19T19:15:00.138Z,96545.81
2022-10-19T19:17:38.522Z,96553.34
2022-10-19T19:20:13.928Z,96551.97
2022-10-19T19:23:04.415Z,96553.28
2022-10-19T19:25:34.195Z,96555.19
2022-10-19T19:28:01.255Z,96557.66
2022-10-19T19:30:32.466Z,96552.97
2022-10-19T19:33:05.057Z,96552.84
2022-10-19T19:35:32.083Z,96549.94
2022-10-19T19:37:59.577Z,96555.53
2022-10-19T19:40:26.533Z,96551.84
2022-10-19T19:42:57.426Z,96561.50
2022-10-19T19:45:28.196Z,96562.59
2022-10-19T19:48:06.573Z,96559.09
2022-10-19T19:50:44.216Z,96559.34
2022-10-19T19:53:18.814Z,96555.00
2022-10-19T19:58:32.233Z,96551.94
2022-10-19T20:01:00.752Z,96560.97
2022-10-19T20:03:31.815Z,96563.69
2022-10-19T20:06:05.342Z,96566.03
2022-10-19T20:08:38.794Z,96560.47
2022-10-19T20:11:15.057Z,96569.66
2022-10-19T20:13:41.847Z,96564.53
2022-10-19T20:16:09.366Z,96564.56
2022-10-19T20:18:36.618Z,96562.03
2022-10-19T20:21:05.329Z,96557.84
2022-10-19T20:23:32.657Z,96558.56
2022-10-19T20:25:59.976Z,96559.50
2022-10-19T20:28:27.404Z,96562.47
2022-10-19T20:30:54.920Z,96568.75
2022-10-19T20:33:22.592Z,96578.78
2022-10-19T20:39:04.588Z,96569.34
2022-10-19T20:41:35.155Z,96573.00
2022-10-19T20:44:02.317Z,96575.47
2022-10-19T20:49:10.081Z,96573.97
2022-10-19T20:51:38.597Z,96576.13
2022-10-19T20:54:05.562Z,96571.97
2022-10-19T20:56:35.330Z,96575.34
2022-10-19T20:59:11.722Z,96572.59
2022-10-19T21:01:43.782Z,96577.81
2022-10-19T21:04:11.114Z,96570.34
2022-10-19T21:06:47.477Z,96572.88
2022-10-19T21:09:17.919Z,96555.78
2022-10-19T21:11:45.189Z,96556.50
2022-10-19T21:14:12.748Z,96558.47
2022-10-19T21:16:44.381Z,96561.16
2022-10-19T21:19:13.194Z,96562.91
2022-10-19T21:21:45.662Z,96578.59
2022-10-19T21:24:17.844Z,96577.88
2022-10-19T21:26:48.863Z,96585.69
2022-10-19T21:29:16.566Z,96579.09
2022-10-19T21:31:48.647Z,96578.47
2022-10-19T21:34:16.242Z,96575.00
2022-10-19T21:36:43.954Z,96574.22
2022-10-19T21:39:11.068Z,96577.81
2022-10-19T21:41:38.335Z,96578.28
2022-10-19T21:44:06.873Z,96577.72
2022-10-19T21:46:36.628Z,96569.34
2022-10-19T21:49:08.890Z,96563.19
2022-10-19T21:51:36.020Z,96565.88
2022-10-19T21:54:02.981Z,96563.00
2022-10-19T21:56:37.696Z,96564.19
2022-10-19T21:59:05.185Z,96561.63
2022-10-19T22:01:42.683Z,96556.56
2022-10-19T22:04:10.006Z,96549.94
2022-10-19T22:06:41.663Z,96542.59
2022-10-19T22:09:08.613Z,96546.53
2022-10-19T22:11:39.807Z,96546.81
2022-10-19T22:14:08.810Z,96544.69
2022-10-19T22:16:39.479Z,96543.56
2022-10-19T22:19:07.552Z,96546.00
2022-10-19T22:24:17.271Z,96544.31
2022-10-19T22:26:47.797Z,96537.13
2022-10-19T22:29:17.985Z,96535.00
2022-10-19T22:31:45.240Z,96528.31
2022-10-19T22:34:18.474Z,96521.94
2022-10-19T22:36:46.438Z,96531.78
2022-10-19T22:39:13.450Z,96527.28
2022-10-19T22:41:40.371Z,96525.97
2022-10-19T22:44:08.854Z,96525.00
2022-10-19T22:46:35.855Z,96512.28
2022-10-19T22:49:04.040Z,96510.13
2022-10-19T22:51:32.573Z,96513.00
2022-10-19T22:54:00.918Z,96510.88
2022-10-19T22:56:27.982Z,96507.75
2022-10-19T22:58:54.858Z,96506.72
2022-10-19T23:01:24.834Z,96510.06
2022-10-19T23:03:51.883Z,96504.06
2022-10-19T23:06:21.489Z,96506.47
2022-10-19T23:08:56.844Z,96502.59
2022-10-19T23:11:25.398Z,96498.53
2022-10-19T23:13:54.655Z,96492.66
2022-10-19T23:16:22.650Z,96496.34
2022-10-19T23:18:49.870Z,96478.81
2022-10-19T23:21:17.773Z,96479.91
2022-10-19T23:23:45.071Z,96483.31
2022-10-19T23:26:15.184Z,96479.19
2022-10-19T23:28:42.873Z,96471.53
2022-10-19T23:31:20.739Z,96475.56
2022-10-19T23:33:49.493Z,96465.31
2022-10-19T23:36:27.967Z,96475.38
2022-10-19T23:38:55.102Z,96471.56
2022-10-19T23:41:23.978Z,96470.00
2022-10-19T23:44:02.301Z,96468.63
2022-10-19T23:49:15.478Z,96468.25
2022-10-19T23:51:43.421Z,96465.19
2022-10-19T23:54:10.354Z,96467.38
2022-10-19T23:56:37.118Z,96481.13
2022-10-19T23:59:04.405Z,96478.06
